Time;durP1;ratioP1;P1;durP2;ratioP2;P2;SDS_P1;SDS_P2;PMS_P1;PMS_P2;Temp;Humidity;BMP_temperature;BMP_pressure;BME280_temperature;BME280_humidity;BME280_pressure;Samples;Min_cycle;Max_cycle;Signal;HPM_P1;HPM_P2
2021/06/03 00:02:23;;;;;;;4.47;3.20;;;;;;;;;;5051972;28;20416;-52
2021/06/03 00:04:49;;;;;;;5.17;2.90;;;;;;;;;;5052125;28;20409;-52
2021/06/03 00:07:15;;;;;;;3.23;3.03;;;;;;;;;;5052095;28;20885;-52
2021/06/03 00:09:42;;;;;;;3.20;2.90;;;;;;;;;;5051835;28;20461;-52
2021/06/03 00:12:09;;;;;;;3.40;2.67;;;;;;;;;;5051838;28;20407;-53
2021/06/03 00:14:35;;;;;;;3.10;2.90;;;;;;;;;;5051719;28;20393;-53
2021/06/03 00:17:01;;;;;;;3.57;3.37;;;;;;;;;;5051886;28;20477;-52
2021/06/03 00:19:26;;;;;;;3.23;3.03;;;;;;;;;;5051656;28;20992;-52
2021/06/03 00:21:54;;;;;;;3.40;3.13;;;;;;;;;;5051563;28;20420;-52
2021/06/03 00:24:20;;;;;;;3.43;2.83;;;;;;;;;;5051524;28;20416;-53
2021/06/03 00:26:46;;;;;;;4.30;3.43;;;;;;;;;;5051629;28;20421;-52
2021/06/03 00:29:14;;;;;;;3.37;3.07;;;;;;;;;;5051356;28;20488;-52
2021/06/03 00:31:41;;;;;;;3.10;2.90;;;;;;;;;;5051479;28;20397;-53
2021/06/03 00:34:07;;;;;;;3.50;3.17;;;;;;;;;;5050913;28;20909;-53
2021/06/03 00:36:33;;;;;;;3.40;3.10;;;;;;;;;;5051194;28;20870;-53
2021/06/03 00:38:59;;;;;;;4.13;3.23;;;;;;;;;;5051211;28;20429;-53
2021/06/03 00:41:25;;;;;;;3.70;3.37;;;;;;;;;;5051230;28;20915;-54
2021/06/03 00:43:51;;;;;;;5.40;3.57;;;;;;;;;;5051277;28;20402;-53
2021/06/03 00:46:17;;;;;;;3.77;3.47;;;;;;;;;;5051364;28;20405;-54
2021/06/03 00:48:43;;;;;;;3.40;3.10;;;;;;;;;;5050973;28;20428;-54
2021/06/03 00:51:10;;;;;;;3.83;3.63;;;;;;;;;;5051154;28;20692;-54
2021/06/03 00:53:37;;;;;;;3.57;3.27;;;;;;;;;;5050997;28;20441;-53
2021/06/03 00:56:03;;;;;;;4.57;2.87;;;;;;;;;;5051040;28;20886;-53
2021/06/03 00:58:29;;;;;;;2.93;2.80;;;;;;;;;;5051078;28;20433;-53
2021/06/03 01:00:56;;;;;;;3.97;3.60;;;;;;;;;;5050929;28;20827;-53
2021/06/03 01:03:23;;;;;;;6.00;3.50;;;;;;;;;;5050236;28;20432;-53
2021/06/03 01:05:50;;;;;;;3.50;3.20;;;;;;;;;;5050360;28;20894;-53
2021/06/03 01:08:21;;;;;;;3.10;2.93;;;;;;;;;;5050913;28;20421;-53
2021/06/03 01:10:58;;;;;;;4.00;3.30;;;;;;;;;;5050677;28;20871;-53
2021/06/03 01:13:30;;;;;;;3.30;3.10;;;;;;;;;;5050703;28;20477;-53
2021/06/03 01:15:57;;;;;;;3.10;2.90;;;;;;;;;;5050620;28;20492;-52
2021/06/03 01:18:24;;;;;;;4.20;3.20;;;;;;;;;;5050775;28;20794;-52
2021/06/03 01:20:50;;;;;;;3.33;3.13;;;;;;;;;;5050726;28;20949;-52
2021/06/03 01:23:33;;;;;;;3.40;3.20;;;;;;;;;;5050580;28;20886;-52
2021/06/03 01:26:00;;;;;;;3.20;3.00;;;;;;;;;;5050631;28;20409;-53
2021/06/03 01:28:26;;;;;;;4.73;2.90;;;;;;;;;;5050673;28;20421;-52
2021/06/03 01:30:54;;;;;;;3.57;3.30;;;;;;;;;;5050585;28;20496;-52
2021/06/03 01:33:21;;;;;;;3.83;3.27;;;;;;;;;;5050492;28;20410;-53
2021/06/03 01:35:49;;;;;;;3.90;3.10;;;;;;;;;;5050568;28;20424;-53
2021/06/03 01:38:17;;;;;;;3.17;2.97;;;;;;;;;;5050761;28;20422;-55
2021/06/03 01:40:44;;;;;;;3.60;3.30;;;;;;;;;;5050801;28;20481;-52
2021/06/03 01:43:11;;;;;;;3.73;3.43;;;;;;;;;;5050599;28;20402;-53
2021/06/03 01:45:37;;;;;;;7.20;3.40;;;;;;;;;;5050993;28;20850;-53
2021/06/03 01:48:05;;;;;;;3.50;3.20;;;;;;;;;;5053777;28;20405;-55
2021/06/03 01:50:32;;;;;;;3.40;3.20;;;;;;;;;;5054740;28;20456;-52
2021/06/03 01:52:58;;;;;;;3.93;3.60;;;;;;;;;;5054664;28;20401;-54
2021/06/03 01:55:24;;;;;;;3.90;3.57;;;;;;;;;;5054597;28;20408;-52
2021/06/03 01:57:51;;;;;;;3.63;3.30;;;;;;;;;;5054545;28;20802;-52
2021/06/03 02:00:18;;;;;;;3.40;3.10;;;;;;;;;;5054703;28;20413;-52
2021/06/03 02:02:44;;;;;;;3.93;3.50;;;;;;;;;;5054137;28;20437;-54
2021/06/03 02:05:10;;;;;;;3.97;3.67;;;;;;;;;;5054462;28;20467;-52
2021/06/03 02:07:36;;;;;;;3.70;3.40;;;;;;;;;;5054281;28;20401;-54
2021/06/03 02:10:03;;;;;;;3.90;3.70;;;;;;;;;;5054196;28;20459;-53
2021/06/03 02:12:32;;;;;;;6.47;3.60;;;;;;;;;;5053895;28;20401;-52
2021/06/03 02:14:58;;;;;;;3.57;3.27;;;;;;;;;;5054768;28;20742;-54
2021/06/03 02:17:29;;;;;;;6.33;3.50;;;;;;;;;;5054348;28;20409;-53
2021/06/03 02:19:56;;;;;;;3.93;3.60;;;;;;;;;;5054415;28;20417;-53
2021/06/03 02:22:23;;;;;;;3.50;3.30;;;;;;;;;;5053964;28;20542;-53
2021/06/03 02:24:53;;;;;;;5.70;3.33;;;;;;;;;;5054312;28;20413;-54
2021/06/03 02:27:20;;;;;;;4.90;3.60;;;;;;;;;;5054100;28;20409;-53
2021/06/03 02:29:47;;;;;;;4.00;3.60;;;;;;;;;;5054188;28;20480;-54
2021/06/03 02:32:14;;;;;;;4.60;3.30;;;;;;;;;;5053832;28;20393;-53
2021/06/03 02:34:40;;;;;;;4.10;3.53;;;;;;;;;;5054006;28;20419;-53
2021/06/03 02:37:10;;;;;;;4.70;3.43;;;;;;;;;;5053915;28;20488;-54
2021/06/03 02:39:36;;;;;;;3.63;3.33;;;;;;;;;;5054117;28;20421;-54
2021/06/03 02:42:02;;;;;;;6.70;3.53;;;;;;;;;;5053811;28;20422;-54
2021/06/03 02:44:28;;;;;;;3.63;3.37;;;;;;;;;;5053942;28;20405;-53
2021/06/03 02:46:54;;;;;;;3.87;3.30;;;;;;;;;;5053954;28;20916;-53
2021/06/03 02:49:20;;;;;;;3.90;3.60;;;;;;;;;;5053582;28;20548;-53
2021/06/03 02:51:46;;;;;;;3.47;3.17;;;;;;;;;;5052263;28;20478;-53
2021/06/03 02:54:12;;;;;;;3.77;3.57;;;;;;;;;;5053697;28;20429;-53
2021/06/03 02:56:38;;;;;;;4.37;4.07;;;;;;;;;;5053513;28;20831;-54
2021/06/03 02:59:04;;;;;;;10.37;3.50;;;;;;;;;;5052957;28;20425;-54
2021/06/03 03:01:30;;;;;;;3.60;3.30;;;;;;;;;;5053344;28;20409;-54
2021/06/03 03:03:56;;;;;;;3.20;3.00;;;;;;;;;;5053287;28;20878;-54
2021/06/03 03:06:22;;;;;;;4.00;3.27;;;;;;;;;;5053596;28;20416;-54
2021/06/03 03:08:48;;;;;;;3.97;3.67;;;;;;;;;;5053384;28;20503;-53
2021/06/03 03:11:14;;;;;;;5.27;3.40;;;;;;;;;;5053130;28;20876;-53
2021/06/03 03:13:40;;;;;;;10.83;3.53;;;;;;;;;;5053112;28;20408;-54
2021/06/03 03:16:06;;;;;;;3.23;3.00;;;;;;;;;;5053293;28;21027;-53
2021/06/03 03:18:32;;;;;;;3.83;2.90;;;;;;;;;;5053187;28;20417;-54
2021/06/03 03:20:58;;;;;;;3.57;3.37;;;;;;;;;;5053240;28;20814;-54
2021/06/03 03:23:24;;;;;;;3.33;3.03;;;;;;;;;;5052834;28;20404;-53
2021/06/03 03:25:50;;;;;;;4.93;3.07;;;;;;;;;;5053206;28;20680;-54
2021/06/03 03:28:16;;;;;;;5.83;3.80;;;;;;;;;;5052898;28;20448;-54
2021/06/03 03:30:43;;;;;;;4.40;3.40;;;;;;;;;;5052882;28;21011;-54
2021/06/03 03:33:12;;;;;;;3.70;3.40;;;;;;;;;;5052396;28;20398;-53
2021/06/03 03:35:38;;;;;;;5.13;3.20;;;;;;;;;;5052703;28;20421;-54
2021/06/03 03:38:04;;;;;;;3.37;3.07;;;;;;;;;;5052651;28;20489;-53
2021/06/03 03:40:30;;;;;;;3.90;3.70;;;;;;;;;;5052666;28;20412;-54
2021/06/03 03:42:56;;;;;;;5.50;3.17;;;;;;;;;;5052194;28;20539;-54
2021/06/03 03:45:24;;;;;;;3.33;2.87;;;;;;;;;;5052634;28;20444;-54
2021/06/03 03:47:50;;;;;;;3.07;2.87;;;;;;;;;;5052249;28;20443;-54
2021/06/03 03:50:19;;;;;;;3.53;3.23;;;;;;;;;;5052311;28;20448;-54
2021/06/03 03:52:45;;;;;;;3.90;3.60;;;;;;;;;;5052210;28;20397;-54
2021/06/03 03:55:12;;;;;;;3.43;3.13;;;;;;;;;;5052342;28;20402;-54
2021/06/03 03:57:38;;;;;;;5.63;3.30;;;;;;;;;;5052686;28;20412;-54
2021/06/03 04:00:06;;;;;;;3.43;3.10;;;;;;;;;;5052391;28;20421;-54
2021/06/03 04:02:32;;;;;;;3.83;3.53;;;;;;;;;;5052216;28;20413;-54
2021/06/03 04:04:59;;;;;;;7.20;3.50;;;;;;;;;;5052263;28;20405;-53
2021/06/03 04:07:25;;;;;;;3.27;3.07;;;;;;;;;;5052463;28;20405;-54
2021/06/03 04:09:51;;;;;;;3.57;3.17;;;;;;;;;;5051018;28;20823;-53
2021/06/03 04:12:17;;;;;;;3.03;2.80;;;;;;;;;;5051843;28;20424;-54
2021/06/03 04:14:43;;;;;;;3.60;3.30;;;;;;;;;;5051832;28;20427;-53
2021/06/03 04:17:09;;;;;;;3.47;3.27;;;;;;;;;;5051883;28;20405;-54
2021/06/03 04:19:35;;;;;;;4.33;2.70;;;;;;;;;;5051782;28;20457;-54
2021/06/03 04:22:02;;;;;;;3.33;3.03;;;;;;;;;;5051752;28;20944;-54
2021/06/03 04:24:28;;;;;;;4.83;2.90;;;;;;;;;;5051645;28;20413;-54
2021/06/03 04:26:54;;;;;;;3.67;3.40;;;;;;;;;;5051700;28;20384;-54
2021/06/03 04:29:20;;;;;;;3.40;3.03;;;;;;;;;;5051452;28;20427;-54
2021/06/03 04:31:46;;;;;;;2.97;2.77;;;;;;;;;;5051394;28;20916;-54
2021/06/03 04:34:12;;;;;;;4.30;3.10;;;;;;;;;;5051361;28;20753;-53
2021/06/03 04:36:38;;;;;;;2.83;2.60;;;;;;;;;;5051558;28;20394;-53
2021/06/03 04:39:04;;;;;;;3.63;2.93;;;;;;;;;;5051268;28;20417;-53
2021/06/03 04:41:30;;;;;;;2.80;2.60;;;;;;;;;;5051249;28;20485;-53
2021/06/03 04:43:56;;;;;;;5.07;3.10;;;;;;;;;;5051301;28;20809;-54
2021/06/03 04:46:22;;;;;;;2.77;2.50;;;;;;;;;;5051186;28;20390;-54
2021/06/03 04:48:48;;;;;;;5.23;2.87;;;;;;;;;;5051270;28;20417;-54
2021/06/03 04:51:14;;;;;;;3.30;3.10;;;;;;;;;;5050844;28;20456;-54
2021/06/03 04:53:43;;;;;;;3.00;2.80;;;;;;;;;;5051150;28;20393;-54
2021/06/03 04:56:10;;;;;;;3.60;3.30;;;;;;;;;;5051362;28;20454;-53
2021/06/03 04:58:36;;;;;;;2.93;2.73;;;;;;;;;;5051104;28;20824;-53
2021/06/03 05:01:02;;;;;;;5.10;3.07;;;;;;;;;;5050906;28;20401;-53
2021/06/03 05:03:28;;;;;;;3.73;2.90;;;;;;;;;;5050802;28;20490;-54
2021/06/03 05:05:54;;;;;;;2.90;2.70;;;;;;;;;;5050877;28;20436;-53
2021/06/03 05:08:20;;;;;;;6.70;3.30;;;;;;;;;;5050968;28;20502;-53
2021/06/03 05:10:46;;;;;;;3.30;3.00;;;;;;;;;;5050804;28;20511;-53
2021/06/03 05:13:13;;;;;;;3.17;3.00;;;;;;;;;;5050740;28;20397;-54
2021/06/03 05:15:39;;;;;;;3.03;2.83;;;;;;;;;;5050594;28;20507;-53
2021/06/03 05:18:05;;;;;;;3.80;3.00;;;;;;;;;;5050965;28;20390;-53
2021/06/03 05:20:31;;;;;;;3.30;3.00;;;;;;;;;;5050460;28;20406;-54
2021/06/03 05:22:58;;;;;;;3.30;3.10;;;;;;;;;;5050843;28;20406;-53
2021/06/03 05:25:26;;;;;;;3.20;2.77;;;;;;;;;;5050636;28;20432;-54
2021/06/03 05:27:52;;;;;;;4.50;2.77;;;;;;;;;;5050708;28;20471;-54
2021/06/03 05:30:20;;;;;;;2.93;2.63;;;;;;;;;;5050443;28;20453;-54
2021/06/03 05:32:46;;;;;;;3.10;2.60;;;;;;;;;;5050550;28;20400;-53
2021/06/03 05:35:14;;;;;;;3.47;3.00;;;;;;;;;;5050494;28;20413;-54
2021/06/03 05:37:40;;;;;;;2.90;2.70;;;;;;;;;;5050901;28;20405;-54
2021/06/03 05:40:07;;;;;;;3.40;3.10;;;;;;;;;;5050669;28;20460;-53
2021/06/03 05:42:33;;;;;;;2.70;2.50;;;;;;;;;;5050288;28;20467;-54
2021/06/03 05:44:59;;;;;;;2.87;2.67;;;;;;;;;;5050598;28;21019;-54
2021/06/03 05:47:25;;;;;;;2.87;2.63;;;;;;;;;;5050475;28;21078;-53
2021/06/03 05:49:51;;;;;;;3.13;2.37;;;;;;;;;;5050332;28;20557;-53
2021/06/03 05:52:17;;;;;;;3.37;3.07;;;;;;;;;;5050233;28;20401;-53
2021/06/03 05:54:43;;;;;;;2.80;2.60;;;;;;;;;;5050671;28;20421;-53
2021/06/03 05:57:09;;;;;;;3.13;2.93;;;;;;;;;;5050412;28;20885;-54
2021/06/03 05:59:35;;;;;;;2.67;2.47;;;;;;;;;;5050452;28;20435;-53
2021/06/03 06:02:04;;;;;;;3.23;3.03;;;;;;;;;;5050331;28;20487;-53
2021/06/03 06:06:56;;;;;;;2.60;2.40;;;;;;;;;;5050660;28;20412;-53
2021/06/03 06:09:22;;;;;;;2.67;2.50;;;;;;;;;;5050592;28;20453;-53
2021/06/03 06:11:49;;;;;;;3.07;2.87;;;;;;;;;;5048789;28;20413;-53
2021/06/03 06:14:15;;;;;;;3.77;3.13;;;;;;;;;;5050492;28;20425;-53
2021/06/03 06:16:41;;;;;;;3.40;2.90;;;;;;;;;;5049932;28;20873;-53
2021/06/03 06:19:08;;;;;;;3.20;3.00;;;;;;;;;;5044886;28;20441;-54
2021/06/03 06:21:35;;;;;;;2.90;2.70;;;;;;;;;;5041546;28;20500;-54
2021/06/03 06:24:01;;;;;;;6.10;3.40;;;;;;;;;;5050014;28;20406;-54
2021/06/03 06:26:27;;;;;;;3.30;3.10;;;;;;;;;;5050324;28;20459;-54
2021/06/03 06:28:55;;;;;;;3.17;2.97;;;;;;;;;;5049884;28;20417;-54
2021/06/03 06:31:22;;;;;;;3.57;3.27;;;;;;;;;;5049860;28;20503;-54
2021/06/03 06:33:48;;;;;;;3.20;3.00;;;;;;;;;;5050904;28;20572;-54
2021/06/03 06:36:15;;;;;;;3.70;3.20;;;;;;;;;;5053694;28;20997;-54
2021/06/03 06:38:41;;;;;;;3.37;3.07;;;;;;;;;;5053619;28;20796;-54
2021/06/03 06:41:08;;;;;;;3.43;2.83;;;;;;;;;;5053501;28;20412;-54
2021/06/03 06:43:34;;;;;;;3.20;3.00;;;;;;;;;;5053018;28;20424;-54
2021/06/03 06:46:01;;;;;;;3.50;3.20;;;;;;;;;;5053678;28;20654;-54
2021/06/03 06:48:27;;;;;;;3.70;3.47;;;;;;;;;;5052740;28;20433;-54
2021/06/03 06:50:53;;;;;;;3.80;3.50;;;;;;;;;;5053253;28;20484;-54
2021/06/03 06:53:19;;;;;;;4.47;3.83;;;;;;;;;;5052835;28;20475;-53
2021/06/03 06:55:45;;;;;;;4.07;3.77;;;;;;;;;;5053158;28;20777;-54
2021/06/03 06:58:11;;;;;;;7.10;3.80;;;;;;;;;;5053190;28;20413;-53
2021/06/03 07:00:38;;;;;;;3.97;3.67;;;;;;;;;;5053069;28;20484;-52
2021/06/03 07:03:07;;;;;;;4.40;3.87;;;;;;;;;;5052896;28;20419;-53
2021/06/03 07:05:33;;;;;;;5.83;4.10;;;;;;;;;;5052859;28;20462;-53
2021/06/03 07:07:59;;;;;;;4.70;4.30;;;;;;;;;;5052778;28;20408;-53
2021/06/03 07:10:25;;;;;;;4.80;4.40;;;;;;;;;;5052684;28;20460;-53
2021/06/03 07:12:51;;;;;;;4.50;4.10;;;;;;;;;;5052733;28;20401;-53
2021/06/03 07:15:17;;;;;;;4.40;4.10;;;;;;;;;;5052788;28;20912;-54
2021/06/03 07:17:44;;;;;;;5.57;3.90;;;;;;;;;;5052774;28;20402;-53
2021/06/03 07:20:12;;;;;;;4.47;4.17;;;;;;;;;;5052494;28;20475;-53
2021/06/03 07:22:38;;;;;;;5.17;4.77;;;;;;;;;;5052345;28;20405;-53
2021/06/03 07:25:06;;;;;;;5.20;4.60;;;;;;;;;;5052559;28;20406;-53
2021/06/03 07:27:32;;;;;;;5.40;4.30;;;;;;;;;;5051368;28;20421;-53
2021/06/03 07:30:00;;;;;;;3.80;3.50;;;;;;;;;;5052381;28;20499;-53
2021/06/03 07:32:27;;;;;;;4.97;4.27;;;;;;;;;;5052254;28;20409;-52
2021/06/03 07:34:53;;;;;;;6.13;4.47;;;;;;;;;;5052496;28;20417;-53
2021/06/03 07:37:19;;;;;;;4.90;4.30;;;;;;;;;;5052297;28;20481;-53
2021/06/03 07:39:45;;;;;;;4.90;4.37;;;;;;;;;;5052489;28;20943;-53
2021/06/03 07:42:12;;;;;;;5.50;4.40;;;;;;;;;;5052092;28;20440;-52
2021/06/03 07:44:39;;;;;;;6.43;5.83;;;;;;;;;;5052342;28;20776;-53
2021/06/03 07:47:05;;;;;;;11.60;8.70;;;;;;;;;;5052292;28;20432;-53
2021/06/03 07:49:31;;;;;;;4.77;4.10;;;;;;;;;;5052785;28;20781;-53
2021/06/03 07:51:57;;;;;;;4.93;4.43;;;;;;;;;;5051878;28;20412;-53
2021/06/03 07:54:23;;;;;;;7.57;4.40;;;;;;;;;;5052059;28;20405;-53
2021/06/03 07:56:49;;;;;;;7.03;4.17;;;;;;;;;;5052082;28;20443;-53
2021/06/03 07:59:16;;;;;;;6.90;4.40;;;;;;;;;;5052187;28;20429;-53
2021/06/03 08:01:42;;;;;;;4.60;4.23;;;;;;;;;;5052317;28;20430;-53
2021/06/03 08:04:08;;;;;;;5.17;4.60;;;;;;;;;;5052037;28;20762;-53
2021/06/03 08:06:34;;;;;;;5.73;4.50;;;;;;;;;;5052037;28;20385;-53
2021/06/03 08:09:00;;;;;;;8.17;5.30;;;;;;;;;;5049602;28;20433;-53
2021/06/03 08:11:26;;;;;;;4.70;4.30;;;;;;;;;;5051752;28;20440;-53
2021/06/03 08:13:52;;;;;;;5.23;4.60;;;;;;;;;;5051521;28;20409;-53
2021/06/03 08:16:20;;;;;;;5.90;4.90;;;;;;;;;;5052440;28;20758;-53
2021/06/03 08:18:46;;;;;;;5.30;4.80;;;;;;;;;;5051542;28;20483;-53
2021/06/03 08:21:11;;;;;;;4.80;4.37;;;;;;;;;;5051486;28;20798;-56
2021/06/03 08:23:38;;;;;;;6.53;4.80;;;;;;;;;;5051707;28;20406;-53
2021/06/03 08:26:04;;;;;;;5.53;4.53;;;;;;;;;;5050392;28;20408;-53
2021/06/03 08:28:30;;;;;;;9.30;5.33;;;;;;;;;;5051240;28;20429;-53
2021/06/03 08:30:58;;;;;;;5.37;4.97;;;;;;;;;;5051646;28;20536;-53
2021/06/03 08:33:25;;;;;;;6.03;5.20;;;;;;;;;;5050970;28;20405;-53
2021/06/03 08:35:51;;;;;;;7.37;4.57;;;;;;;;;;5051275;28;20475;-54
2021/06/03 08:38:17;;;;;;;4.40;4.00;;;;;;;;;;5051347;28;20926;-53
2021/06/03 08:40:45;;;;;;;4.93;4.53;;;;;;;;;;5051016;28;20844;-53
2021/06/03 08:43:11;;;;;;;4.47;4.17;;;;;;;;;;5049775;28;20725;-53
2021/06/03 08:45:40;;;;;;;5.93;5.47;;;;;;;;;;5050717;28;20495;-53
2021/06/03 08:48:06;;;;;;;4.93;4.50;;;;;;;;;;5050826;28;20421;-53
2021/06/03 08:50:34;;;;;;;5.10;4.70;;;;;;;;;;5050877;28;20457;-53
2021/06/03 08:53:00;;;;;;;4.83;4.40;;;;;;;;;;5050609;28;20478;-53
2021/06/03 08:58:14;;;;;;;6.50;5.10;;;;;;;;;;5050714;28;21019;-53
2021/06/03 09:00:41;;;;;;;5.43;4.93;;;;;;;;;;5050735;28;20959;-53
2021/06/03 09:03:07;;;;;;;5.03;4.63;;;;;;;;;;5049702;28;20404;-54
2021/06/03 09:05:33;;;;;;;5.87;5.47;;;;;;;;;;5050835;28;20484;-54
2021/06/03 09:08:14;;;;;;;5.97;5.17;;;;;;;;;;5050511;28;20425;-54
2021/06/03 09:10:41;;;;;;;6.57;4.67;;;;;;;;;;5050601;28;20960;-54
2021/06/03 09:13:10;;;;;;;5.70;5.20;;;;;;;;;;5050384;28;20398;-54
2021/06/03 09:15:37;;;;;;;7.27;5.47;;;;;;;;;;5050551;28;20444;-54
2021/06/03 09:18:06;;;;;;;7.70;6.40;;;;;;;;;;5050470;28;20425;-54
2021/06/03 09:20:32;;;;;;;13.40;8.43;;;;;;;;;;5050671;28;20432;-54
2021/06/03 09:22:58;;;;;;;6.00;5.17;;;;;;;;;;5049873;28;20474;-54
2021/06/03 09:25:31;;;;;;;6.87;5.73;;;;;;;;;;5050461;28;20898;-54
2021/06/03 09:28:17;;;;;;;5.63;5.20;;;;;;;;;;5050487;28;20409;-54
2021/06/03 09:30:53;;;;;;;5.43;4.93;;;;;;;;;;5050464;28;20480;-54
2021/06/03 09:33:19;;;;;;;5.67;4.90;;;;;;;;;;5049183;28;20975;-54
2021/06/03 09:35:54;;;;;;;5.43;5.00;;;;;;;;;;5050443;28;20512;-54
2021/06/03 09:38:20;;;;;;;6.23;5.60;;;;;;;;;;5050208;28;20879;-54
2021/06/03 09:40:50;;;;;;;6.07;5.07;;;;;;;;;;5050402;28;20889;-54
2021/06/03 09:43:20;;;;;;;5.90;5.33;;;;;;;;;;5050234;28;20406;-55
2021/06/03 09:45:56;;;;;;;5.90;4.67;;;;;;;;;;5050522;28;20439;-54
2021/06/03 09:48:40;;;;;;;5.30;4.80;;;;;;;;;;5050453;28;20428;-55
2021/06/03 09:51:20;;;;;;;5.07;4.77;;;;;;;;;;5050523;28;20467;-55
2021/06/03 09:54:06;;;;;;;5.67;5.17;;;;;;;;;;5050813;28;20409;-55
2021/06/03 09:56:39;;;;;;;5.67;5.20;;;;;;;;;;5050360;28;20420;-55
2021/06/03 09:59:06;;;;;;;7.00;5.47;;;;;;;;;;5050474;28;20410;-55
2021/06/03 10:01:38;;;;;;;11.40;5.23;;;;;;;;;;5050194;28;20825;-54
2021/06/03 10:04:05;;;;;;;5.63;5.10;;;;;;;;;;5049983;28;20402;-54
2021/06/03 10:06:30;;;;;;;5.50;4.70;;;;;;;;;;5049735;28;20544;-54
2021/06/03 10:08:56;;;;;;;5.83;5.30;;;;;;;;;;5052686;28;20478;-54
2021/06/03 10:11:41;;;;;;;5.37;4.93;;;;;;;;;;5053784;28;20459;-54
2021/06/03 10:14:15;;;;;;;4.80;4.40;;;;;;;;;;5054095;28;20431;-54
2021/06/03 10:16:41;;;;;;;5.97;5.10;;;;;;;;;;5053856;28;20553;-54
2021/06/03 10:19:22;;;;;;;5.80;5.40;;;;;;;;;;5052819;28;20417;-54
2021/06/03 10:22:08;;;;;;;5.20;4.70;;;;;;;;;;5053061;28;20762;-54
2021/06/03 10:24:53;;;;;;;7.10;4.97;;;;;;;;;;5053592;28;20397;-54
2021/06/03 10:27:20;;;;;;;7.70;4.87;;;;;;;;;;5053833;28;20409;-54
2021/06/03 10:29:50;;;;;;;5.00;4.63;;;;;;;;;;5053357;28;20799;-54
2021/06/03 10:32:20;;;;;;;6.10;4.53;;;;;;;;;;5053065;28;20471;-54
2021/06/03 10:34:47;;;;;;;5.17;4.77;;;;;;;;;;5053673;28;20500;-54
2021/06/03 10:37:14;;;;;;;5.40;5.00;;;;;;;;;;5053506;28;20398;-54
2021/06/03 10:39:41;;;;;;;8.80;5.40;;;;;;;;;;5053589;28;20460;-54
2021/06/03 10:42:07;;;;;;;5.17;4.67;;;;;;;;;;5053146;28;20405;-54
2021/06/03 10:44:33;;;;;;;7.73;4.97;;;;;;;;;;5053383;28;20401;-54
2021/06/03 10:46:59;;;;;;;6.30;5.03;;;;;;;;;;5053431;28;20905;-54
2021/06/03 10:49:30;;;;;;;6.13;5.40;;;;;;;;;;5053234;28;20428;-54
2021/06/03 10:51:56;;;;;;;14.30;4.87;;;;;;;;;;5053232;28;20402;-54
2021/06/03 10:54:42;;;;;;;5.70;5.10;;;;;;;;;;5053065;28;20404;-54
2021/06/03 10:57:08;;;;;;;7.03;5.90;;;;;;;;;;5053142;28;20390;-54
2021/06/03 10:59:36;;;;;;;7.70;5.77;;;;;;;;;;5053017;28;20429;-54
2021/06/03 11:02:02;;;;;;;5.93;5.10;;;;;;;;;;5053048;28;20911;-54
2021/06/03 11:04:29;;;;;;;7.57;5.77;;;;;;;;;;5052988;28;20463;-54
2021/06/03 11:06:55;;;;;;;6.17;5.57;;;;;;;;;;5053194;28;20410;-54
2021/06/03 11:09:26;;;;;;;6.40;5.00;;;;;;;;;;5052697;28;20516;-54
2021/06/03 11:12:05;;;;;;;6.23;5.33;;;;;;;;;;5052723;28;20769;-54
2021/06/03 11:14:31;;;;;;;10.97;6.00;;;;;;;;;;5052856;28;20452;-54
2021/06/03 11:16:59;;;;;;;6.93;6.00;;;;;;;;;;5053077;28;20405;-54
2021/06/03 11:19:29;;;;;;;6.03;5.50;;;;;;;;;;5052174;28;20461;-54
2021/06/03 11:21:57;;;;;;;5.77;4.97;;;;;;;;;;5052978;28;20401;-55
2021/06/03 11:24:27;;;;;;;12.50;6.10;;;;;;;;;;5052656;28;20463;-54
2021/06/03 11:26:54;;;;;;;7.13;5.50;;;;;;;;;;5053026;28;20747;-54
2021/06/03 11:29:25;;;;;;;5.60;5.10;;;;;;;;;;5052827;28;20961;-54
2021/06/03 11:32:11;;;;;;;5.53;5.13;;;;;;;;;;5050922;28;20528;-54
2021/06/03 11:34:40;;;;;;;6.00;5.40;;;;;;;;;;5052471;28;20940;-54
2021/06/03 11:37:39;;;;;;;5.93;5.40;;;;;;;;;;5052578;28;20428;-54
2021/06/03 11:40:05;;;;;;;6.03;5.43;;;;;;;;;;5040061;28;20437;-54
2021/06/03 11:42:40;;;;;;;5.57;5.03;;;;;;;;;;5052175;28;20444;-54
2021/06/03 11:45:08;;;;;;;6.10;5.00;;;;;;;;;;5052284;28;20766;-54
2021/06/03 11:47:37;;;;;;;6.13;5.50;;;;;;;;;;5052218;28;20406;-54
2021/06/03 11:50:15;;;;;;;6.10;5.50;;;;;;;;;;5052136;28;20491;-54
2021/06/03 11:52:56;;;;;;;5.63;5.13;;;;;;;;;;5051770;28;20432;-54
2021/06/03 11:55:31;;;;;;;7.73;5.47;;;;;;;;;;5051443;28;20836;-54
2021/06/03 11:58:15;;;;;;;5.67;5.07;;;;;;;;;;5050482;28;20407;-54
2021/06/03 12:00:47;;;;;;;6.27;4.93;;;;;;;;;;5051795;28;20405;-54
2021/06/03 12:03:24;;;;;;;4.80;4.40;;;;;;;;;;5051533;28;20397;-55
2021/06/03 12:05:52;;;;;;;6.20;4.17;;;;;;;;;;5051939;28;20577;-54
2021/06/03 12:08:37;;;;;;;4.03;3.83;;;;;;;;;;5051688;28;20460;-54
2021/06/03 12:11:06;;;;;;;4.87;4.40;;;;;;;;;;5051960;28;20456;-53
2021/06/03 12:13:32;;;;;;;7.50;3.93;;;;;;;;;;5051488;28;20877;-54
2021/06/03 12:15:58;;;;;;;5.07;4.27;;;;;;;;;;5051834;28;20758;-54
2021/06/03 12:18:30;;;;;;;4.53;4.17;;;;;;;;;;5051913;28;20423;-54
2021/06/03 12:20:56;;;;;;;4.00;3.63;;;;;;;;;;5051806;28;20398;-54
2021/06/03 12:23:22;;;;;;;3.77;3.53;;;;;;;;;;5051222;28;20409;-54
2021/06/03 12:25:49;;;;;;;3.33;3.00;;;;;;;;;;5050033;28;20445;-54
2021/06/03 12:28:15;;;;;;;5.57;3.70;;;;;;;;;;5050304;28;20429;-55
2021/06/03 12:30:42;;;;;;;4.00;3.70;;;;;;;;;;5050693;28;20453;-54
2021/06/03 12:33:29;;;;;;;4.80;3.30;;;;;;;;;;5051123;28;20412;-54
2021/06/03 12:35:55;;;;;;;3.83;3.53;;;;;;;;;;5050275;28;20506;-54
2021/06/03 12:38:26;;;;;;;7.60;3.80;;;;;;;;;;5051835;28;20934;-55
2021/06/03 12:40:52;;;;;;;4.40;4.10;;;;;;;;;;5051405;28;20401;-54
2021/06/03 12:43:18;;;;;;;3.27;2.97;;;;;;;;;;5051265;28;20431;-54
2021/06/03 12:45:46;;;;;;;3.87;3.57;;;;;;;;;;5051167;28;21142;-55
2021/06/03 12:48:13;;;;;;;4.00;3.70;;;;;;;;;;5051400;28;20429;-54
2021/06/03 12:50:40;;;;;;;4.70;3.67;;;;;;;;;;5051131;28;20456;-54
2021/06/03 12:53:14;;;;;;;5.33;3.87;;;;;;;;;;5051461;28;20548;-54
2021/06/03 12:55:40;;;;;;;4.07;3.70;;;;;;;;;;5051519;28;20426;-54
2021/06/03 12:58:08;;;;;;;4.03;3.73;;;;;;;;;;5051352;28;20463;-55
2021/06/03 13:00:34;;;;;;;4.80;3.77;;;;;;;;;;5051352;28;20762;-55
2021/06/03 13:03:15;;;;;;;3.80;3.50;;;;;;;;;;5051042;28;20471;-54
2021/06/03 13:05:42;;;;;;;4.30;4.00;;;;;;;;;;5050764;28;20463;-54
2021/06/03 13:08:08;;;;;;;3.67;3.37;;;;;;;;;;5051081;28;20452;-55
2021/06/03 13:10:35;;;;;;;3.30;2.80;;;;;;;;;;5050805;28;20975;-54
2021/06/03 13:13:06;;;;;;;3.37;3.17;;;;;;;;;;5050824;28;20393;-55
2021/06/03 13:15:35;;;;;;;3.40;3.03;;;;;;;;;;5050772;28;20390;-55
2021/06/03 13:18:05;;;;;;;2.77;2.40;;;;;;;;;;5051046;28;20405;-55
2021/06/03 13:20:35;;;;;;;3.83;2.80;;;;;;;;;;5050896;28;20477;-55
2021/06/03 13:23:04;;;;;;;3.13;2.60;;;;;;;;;;5050247;28;20401;-55
2021/06/03 13:25:32;;;;;;;2.93;2.43;;;;;;;;;;5050747;28;20401;-55
2021/06/03 13:27:58;;;;;;;3.17;2.80;;;;;;;;;;5050814;28;20402;-55
2021/06/03 13:30:26;;;;;;;2.80;2.70;;;;;;;;;;5050584;28;20506;-54
2021/06/03 13:32:54;;;;;;;2.73;2.53;;;;;;;;;;5050113;28;20405;-55
2021/06/03 13:35:20;;;;;;;3.10;2.90;;;;;;;;;;5050509;28;20440;-55
2021/06/03 13:37:51;;;;;;;3.13;2.93;;;;;;;;;;5050303;28;20413;-55
2021/06/03 13:40:19;;;;;;;2.70;2.50;;;;;;;;;;5050678;28;20409;-55
2021/06/03 13:42:47;;;;;;;2.40;2.30;;;;;;;;;;5054241;28;20882;-55
2021/06/03 13:45:17;;;;;;;2.57;2.37;;;;;;;;;;5057152;28;20401;-55
2021/06/03 13:47:44;;;;;;;4.30;2.77;;;;;;;;;;5056973;28;20885;-55
2021/06/03 13:50:26;;;;;;;3.37;2.50;;;;;;;;;;5056826;28;20532;-55
2021/06/03 13:52:55;;;;;;;3.77;2.47;;;;;;;;;;5057068;28;20574;-55
2021/06/03 13:55:22;;;;;;;7.20;2.33;;;;;;;;;;5057114;28;20393;-55
2021/06/03 13:57:48;;;;;;;2.20;2.00;;;;;;;;;;5056878;28;20419;-55
2021/06/03 14:00:23;;;;;;;2.43;2.33;;;;;;;;;;5048463;28;20435;-55
2021/06/03 14:03:08;;;;;;;3.73;2.70;;;;;;;;;;5036403;28;20416;-55
2021/06/03 14:05:35;;;;;;;3.47;2.57;;;;;;;;;;5036570;28;20413;-55
2021/06/03 14:08:15;;;;;;;3.90;2.17;;;;;;;;;;5036802;28;20843;-55
2021/06/03 14:10:59;;;;;;;2.63;2.40;;;;;;;;;;5036652;28;20449;-54
2021/06/03 14:13:25;;;;;;;2.60;2.37;;;;;;;;;;5036510;28;20424;-55
2021/06/03 14:15:51;;;;;;;3.50;2.50;;;;;;;;;;5037592;28;20402;-53
2021/06/03 14:18:17;;;;;;;2.93;2.30;;;;;;;;;;5036761;28;20471;-53
2021/06/03 14:20:43;;;;;;;2.80;2.60;;;;;;;;;;5036781;28;20401;-53
2021/06/03 14:23:09;;;;;;;2.53;2.37;;;;;;;;;;5036565;28;20915;-53
2021/06/03 14:25:37;;;;;;;2.90;2.80;;;;;;;;;;5036418;28;20408;-54
2021/06/03 14:28:11;;;;;;;2.77;2.60;;;;;;;;;;5035288;28;20425;-53
2021/06/03 14:30:40;;;;;;;3.03;2.80;;;;;;;;;;5036339;28;20896;-54
2021/06/03 14:33:06;;;;;;;3.70;3.20;;;;;;;;;;5036444;28;20528;-53
2021/06/03 14:35:36;;;;;;;2.87;2.70;;;;;;;;;;5036734;28;20425;-53
2021/06/03 14:38:05;;;;;;;2.67;2.47;;;;;;;;;;5036415;28;20390;-53
2021/06/03 14:40:34;;;;;;;3.23;3.03;;;;;;;;;;5036969;28;20472;-55
2021/06/03 14:43:11;;;;;;;5.00;3.57;;;;;;;;;;5036663;28;20402;-53
2021/06/03 14:45:38;;;;;;;7.70;3.27;;;;;;;;;;5037075;28;20481;-53
2021/06/03 14:48:04;;;;;;;3.50;3.20;;;;;;;;;;5036619;28;20406;-54
2021/06/03 14:50:35;;;;;;;4.03;3.13;;;;;;;;;;5036551;28;20454;-54
2021/06/03 14:53:01;;;;;;;3.80;3.50;;;;;;;;;;5034938;28;20879;-53
2021/06/03 14:55:29;;;;;;;3.50;3.20;;;;;;;;;;5032870;28;20460;-53